sensor_id;sensor_type;location;lat;lon;timestamp;P1;durP1;ratioP1;P2;durP2;ratioP2
20653;SDS011;21083;50.898;4.902;2023-07-13T00:00:10;13.18;;;1.98;;
20653;SDS011;21083;50.898;4.902;2023-07-13T00:02:40;12.77;;;2.45;;
20653;SDS011;21083;50.898;4.902;2023-07-13T00:05:08;12.70;;;1.95;;
20653;SDS011;21083;50.898;4.902;2023-07-13T00:07:35;13.30;;;1.90;;
20653;SDS011;21083;50.898;4.902;2023-07-13T00:10:03;10.20;;;1.77;;
20653;SDS011;21083;50.898;4.902;2023-07-13T00:12:32;11.57;;;2.25;;
20653;SDS011;21083;50.898;4.902;2023-07-13T00:15:03;13.80;;;2.17;;
20653;SDS011;21083;50.898;4.902;2023-07-13T00:17:32;9.20;;;1.80;;
20653;SDS011;21083;50.898;4.902;2023-07-13T00:19:59;13.57;;;1.77;;
20653;SDS011;21083;50.898;4.902;2023-07-13T00:22:26;7.22;;;1.52;;
20653;SDS011;21083;50.898;4.902;2023-07-13T00:24:53;10.93;;;2.05;;
20653;SDS011;21083;50.898;4.902;2023-07-13T00:27:22;8.82;;;1.77;;
20653;SDS011;21083;50.898;4.902;2023-07-13T00:29:51;12.98;;;1.80;;
20653;SDS011;21083;50.898;4.902;2023-07-13T00:32:19;16.25;;;2.30;;
20653;SDS011;21083;50.898;4.902;2023-07-13T00:34:46;6.07;;;1.80;;
20653;SDS011;21083;50.898;4.902;2023-07-13T00:37:13;8.75;;;1.60;;
20653;SDS011;21083;50.898;4.902;2023-07-13T00:39:40;9.75;;;1.73;;
20653;SDS011;21083;50.898;4.902;2023-07-13T00:42:06;9.48;;;1.58;;
20653;SDS011;21083;50.898;4.902;2023-07-13T00:44:33;12.65;;;2.08;;
20653;SDS011;21083;50.898;4.902;2023-07-13T00:47:00;7.47;;;1.73;;
20653;SDS011;21083;50.898;4.902;2023-07-13T00:49:29;8.13;;;1.98;;
20653;SDS011;21083;50.898;4.902;2023-07-13T00:51:58;8.23;;;1.80;;
20653;SDS011;21083;50.898;4.902;2023-07-13T00:54:30;10.13;;;2.25;;
20653;SDS011;21083;50.898;4.902;2023-07-13T00:57:00;15.15;;;3.13;;
20653;SDS011;21083;50.898;4.902;2023-07-13T00:59:29;13.55;;;2.03;;
20653;SDS011;21083;50.898;4.902;2023-07-13T01:01:56;10.88;;;2.13;;
20653;SDS011;21083;50.898;4.902;2023-07-13T01:04:24;11.65;;;1.92;;
20653;SDS011;21083;50.898;4.902;2023-07-13T01:06:53;11.73;;;2.05;;
20653;SDS011;21083;50.898;4.902;2023-07-13T01:09:20;6.30;;;1.77;;
20653;SDS011;21083;50.898;4.902;2023-07-13T01:11:47;11.95;;;2.63;;
20653;SDS011;21083;50.898;4.902;2023-07-13T01:14:15;10.68;;;1.80;;
20653;SDS011;21083;50.898;4.902;2023-07-13T01:16:43;9.45;;;1.98;;
20653;SDS011;21083;50.898;4.902;2023-07-13T01:19:15;17.20;;;2.45;;
20653;SDS011;21083;50.898;4.902;2023-07-13T01:22:02;7.45;;;1.58;;
20653;SDS011;21083;50.898;4.902;2023-07-13T01:24:29;11.20;;;2.30;;
20653;SDS011;21083;50.898;4.902;2023-07-13T01:26:56;8.48;;;2.13;;
20653;SDS011;21083;50.898;4.902;2023-07-13T01:29:23;10.95;;;1.90;;
20653;SDS011;21083;50.898;4.902;2023-07-13T01:31:50;6.93;;;1.65;;
20653;SDS011;21083;50.898;4.902;2023-07-13T01:34:17;10.65;;;2.25;;
20653;SDS011;21083;50.898;4.902;2023-07-13T01:36:44;12.30;;;2.20;;
20653;SDS011;21083;50.898;4.902;2023-07-13T01:39:12;13.50;;;1.95;;
20653;SDS011;21083;50.898;4.902;2023-07-13T01:41:39;10.98;;;2.47;;
20653;SDS011;21083;50.898;4.902;2023-07-13T01:44:06;11.40;;;2.20;;
20653;SDS011;21083;50.898;4.902;2023-07-13T01:46:33;10.80;;;1.92;;
20653;SDS011;21083;50.898;4.902;2023-07-13T01:49:00;12.02;;;2.17;;
20653;SDS011;21083;50.898;4.902;2023-07-13T01:51:27;18.55;;;3.20;;
20653;SDS011;21083;50.898;4.902;2023-07-13T01:53:54;10.32;;;2.30;;
20653;SDS011;21083;50.898;4.902;2023-07-13T01:56:22;9.35;;;2.08;;
20653;SDS011;21083;50.898;4.902;2023-07-13T01:58:49;12.57;;;2.17;;
20653;SDS011;21083;50.898;4.902;2023-07-13T02:01:17;13.93;;;1.90;;
20653;SDS011;21083;50.898;4.902;2023-07-13T02:03:44;17.65;;;2.53;;
20653;SDS011;21083;50.898;4.902;2023-07-13T02:06:11;13.40;;;2.08;;
20653;SDS011;21083;50.898;4.902;2023-07-13T02:08:39;12.98;;;2.65;;
20653;SDS011;21083;50.898;4.902;2023-07-13T02:11:07;9.77;;;2.17;;
20653;SDS011;21083;50.898;4.902;2023-07-13T02:13:35;14.75;;;2.30;;
20653;SDS011;21083;50.898;4.902;2023-07-13T02:16:02;11.13;;;3.22;;
20653;SDS011;21083;50.898;4.902;2023-07-13T02:18:29;10.00;;;2.67;;
20653;SDS011;21083;50.898;4.902;2023-07-13T02:20:56;10.63;;;2.30;;
20653;SDS011;21083;50.898;4.902;2023-07-13T02:23:23;11.23;;;1.92;;
20653;SDS011;21083;50.898;4.902;2023-07-13T02:25:53;8.70;;;2.15;;
20653;SDS011;21083;50.898;4.902;2023-07-13T02:28:21;10.70;;;2.33;;
20653;SDS011;21083;50.898;4.902;2023-07-13T02:30:49;18.05;;;3.03;;
20653;SDS011;21083;50.898;4.902;2023-07-13T02:33:16;9.68;;;1.80;;
20653;SDS011;21083;50.898;4.902;2023-07-13T02:35:43;14.10;;;3.33;;
20653;SDS011;21083;50.898;4.902;2023-07-13T02:38:10;14.23;;;2.00;;
20653;SDS011;21083;50.898;4.902;2023-07-13T02:40:37;13.70;;;2.67;;
20653;SDS011;21083;50.898;4.902;2023-07-13T02:43:04;10.63;;;2.40;;
20653;SDS011;21083;50.898;4.902;2023-07-13T02:45:31;10.25;;;2.15;;
20653;SDS011;21083;50.898;4.902;2023-07-13T02:47:59;14.27;;;2.95;;
20653;SDS011;21083;50.898;4.902;2023-07-13T02:50:26;9.35;;;2.70;;
20653;SDS011;21083;50.898;4.902;2023-07-13T02:52:53;16.60;;;2.45;;
20653;SDS011;21083;50.898;4.902;2023-07-13T02:55:19;8.98;;;2.72;;
20653;SDS011;21083;50.898;4.902;2023-07-13T02:57:46;10.00;;;2.55;;
20653;SDS011;21083;50.898;4.902;2023-07-13T03:00:15;17.60;;;4.05;;
20653;SDS011;21083;50.898;4.902;2023-07-13T03:02:42;12.88;;;3.05;;
20653;SDS011;21083;50.898;4.902;2023-07-13T03:05:10;8.30;;;2.13;;
20653;SDS011;21083;50.898;4.902;2023-07-13T03:07:37;14.48;;;3.17;;
20653;SDS011;21083;50.898;4.902;2023-07-13T03:10:05;10.60;;;2.40;;
20653;SDS011;21083;50.898;4.902;2023-07-13T03:12:32;13.18;;;2.35;;
20653;SDS011;21083;50.898;4.902;2023-07-13T03:14:59;9.63;;;2.50;;
20653;SDS011;21083;50.898;4.902;2023-07-13T03:17:26;11.05;;;2.53;;
20653;SDS011;21083;50.898;4.902;2023-07-13T03:19:53;17.77;;;2.65;;
20653;SDS011;21083;50.898;4.902;2023-07-13T03:22:21;12.52;;;2.78;;
20653;SDS011;21083;50.898;4.902;2023-07-13T03:24:48;13.85;;;2.53;;
20653;SDS011;21083;50.898;4.902;2023-07-13T03:27:15;14.98;;;2.90;;
20653;SDS011;21083;50.898;4.902;2023-07-13T03:29:43;18.65;;;3.00;;
20653;SDS011;21083;50.898;4.902;2023-07-13T03:32:10;20.05;;;3.72;;
20653;SDS011;21083;50.898;4.902;2023-07-13T03:34:37;16.50;;;2.67;;
20653;SDS011;21083;50.898;4.902;2023-07-13T03:37:04;13.10;;;3.15;;
20653;SDS011;21083;50.898;4.902;2023-07-13T03:39:33;15.32;;;2.72;;
20653;SDS011;21083;50.898;4.902;2023-07-13T03:42:00;12.75;;;3.00;;
20653;SDS011;21083;50.898;4.902;2023-07-13T03:44:27;15.48;;;2.72;;
20653;SDS011;21083;50.898;4.902;2023-07-13T03:46:54;18.27;;;3.17;;
20653;SDS011;21083;50.898;4.902;2023-07-13T03:49:21;14.55;;;2.50;;
20653;SDS011;21083;50.898;4.902;2023-07-13T03:51:48;11.90;;;3.13;;
20653;SDS011;21083;50.898;4.902;2023-07-13T03:54:14;10.23;;;2.08;;
20653;SDS011;21083;50.898;4.902;2023-07-13T03:56:43;13.50;;;3.47;;
20653;SDS011;21083;50.898;4.902;2023-07-13T03:59:10;11.52;;;2.63;;
20653;SDS011;21083;50.898;4.902;2023-07-13T04:01:37;13.32;;;2.78;;
20653;SDS011;21083;50.898;4.902;2023-07-13T04:04:04;14.50;;;2.90;;
20653;SDS011;21083;50.898;4.902;2023-07-13T04:06:31;15.75;;;2.90;;
20653;SDS011;21083;50.898;4.902;2023-07-13T04:08:59;13.23;;;2.70;;
20653;SDS011;21083;50.898;4.902;2023-07-13T04:11:29;14.93;;;3.28;;
20653;SDS011;21083;50.898;4.902;2023-07-13T04:13:58;19.33;;;3.58;;
20653;SDS011;21083;50.898;4.902;2023-07-13T04:16:26;11.00;;;2.72;;
20653;SDS011;21083;50.898;4.902;2023-07-13T04:18:55;10.85;;;2.53;;
20653;SDS011;21083;50.898;4.902;2023-07-13T04:21:25;15.77;;;3.00;;
20653;SDS011;21083;50.898;4.902;2023-07-13T04:23:52;14.30;;;3.17;;
20653;SDS011;21083;50.898;4.902;2023-07-13T04:26:19;19.27;;;3.50;;
20653;SDS011;21083;50.898;4.902;2023-07-13T04:28:48;17.75;;;2.88;;
20653;SDS011;21083;50.898;4.902;2023-07-13T04:31:16;12.82;;;3.30;;
20653;SDS011;21083;50.898;4.902;2023-07-13T04:33:44;10.30;;;2.70;;
20653;SDS011;21083;50.898;4.902;2023-07-13T04:36:11;12.27;;;2.80;;
20653;SDS011;21083;50.898;4.902;2023-07-13T04:38:38;12.35;;;3.15;;
20653;SDS011;21083;50.898;4.902;2023-07-13T04:41:06;15.48;;;2.90;;
20653;SDS011;21083;50.898;4.902;2023-07-13T04:43:34;18.08;;;3.38;;
20653;SDS011;21083;50.898;4.902;2023-07-13T04:46:05;18.20;;;3.30;;
20653;SDS011;21083;50.898;4.902;2023-07-13T04:48:34;9.30;;;2.75;;
20653;SDS011;21083;50.898;4.902;2023-07-13T04:51:01;11.85;;;2.85;;
20653;SDS011;21083;50.898;4.902;2023-07-13T04:53:29;16.75;;;3.10;;
20653;SDS011;21083;50.898;4.902;2023-07-13T04:55:57;13.95;;;2.58;;
20653;SDS011;21083;50.898;4.902;2023-07-13T04:58:24;13.68;;;3.35;;
20653;SDS011;21083;50.898;4.902;2023-07-13T05:00:51;14.82;;;3.17;;
20653;SDS011;21083;50.898;4.902;2023-07-13T05:03:18;16.27;;;3.03;;
20653;SDS011;21083;50.898;4.902;2023-07-13T05:05:55;13.55;;;2.70;;
20653;SDS011;21083;50.898;4.902;2023-07-13T05:08:23;13.25;;;2.70;;
20653;SDS011;21083;50.898;4.902;2023-07-13T05:10:50;16.33;;;2.90;;
20653;SDS011;21083;50.898;4.902;2023-07-13T05:13:17;13.10;;;3.28;;
20653;SDS011;21083;50.898;4.902;2023-07-13T05:15:44;11.10;;;3.05;;
20653;SDS011;21083;50.898;4.902;2023-07-13T05:18:11;15.73;;;3.20;;
20653;SDS011;21083;50.898;4.902;2023-07-13T05:20:38;16.25;;;3.15;;
20653;SDS011;21083;50.898;4.902;2023-07-13T05:23:06;16.40;;;2.75;;
20653;SDS011;21083;50.898;4.902;2023-07-13T05:25:33;22.75;;;3.72;;
20653;SDS011;21083;50.898;4.902;2023-07-13T05:28:00;17.42;;;2.78;;
20653;SDS011;21083;50.898;4.902;2023-07-13T05:30:27;21.00;;;4.13;;
20653;SDS011;21083;50.898;4.902;2023-07-13T05:32:54;26.05;;;3.53;;
20653;SDS011;21083;50.898;4.902;2023-07-13T05:35:21;14.40;;;3.05;;
20653;SDS011;21083;50.898;4.902;2023-07-13T05:37:47;18.77;;;3.25;;
20653;SDS011;21083;50.898;4.902;2023-07-13T05:40:16;19.40;;;4.20;;
20653;SDS011;21083;50.898;4.902;2023-07-13T05:42:43;16.17;;;3.63;;
20653;SDS011;21083;50.898;4.902;2023-07-13T05:45:10;18.10;;;3.42;;
20653;SDS011;21083;50.898;4.902;2023-07-13T05:47:37;18.48;;;3.47;;
20653;SDS011;21083;50.898;4.902;2023-07-13T05:50:04;23.40;;;4.18;;
20653;SDS011;21083;50.898;4.902;2023-07-13T05:52:32;18.08;;;3.33;;
20653;SDS011;21083;50.898;4.902;2023-07-13T05:54:58;17.25;;;3.33;;
20653;SDS011;21083;50.898;4.902;2023-07-13T05:57:27;20.58;;;4.00;;
20653;SDS011;21083;50.898;4.902;2023-07-13T05:59:54;15.02;;;3.20;;
20653;SDS011;21083;50.898;4.902;2023-07-13T06:02:20;21.23;;;3.63;;
20653;SDS011;21083;50.898;4.902;2023-07-13T06:04:47;17.98;;;3.15;;
20653;SDS011;21083;50.898;4.902;2023-07-13T06:07:14;11.30;;;2.83;;
20653;SDS011;21083;50.898;4.902;2023-07-13T06:09:41;17.48;;;4.00;;
20653;SDS011;21083;50.898;4.902;2023-07-13T06:12:08;25.77;;;3.97;;
20653;SDS011;21083;50.898;4.902;2023-07-13T06:14:37;16.27;;;3.58;;
20653;SDS011;21083;50.898;4.902;2023-07-13T06:17:04;20.83;;;3.75;;
20653;SDS011;21083;50.898;4.902;2023-07-13T06:19:31;16.77;;;3.20;;
20653;SDS011;21083;50.898;4.902;2023-07-13T06:21:58;23.08;;;4.40;;
20653;SDS011;21083;50.898;4.902;2023-07-13T06:24:25;19.80;;;3.75;;
20653;SDS011;21083;50.898;4.902;2023-07-13T06:26:53;15.10;;;3.85;;
20653;SDS011;21083;50.898;4.902;2023-07-13T06:29:19;18.45;;;3.85;;
20653;SDS011;21083;50.898;4.902;2023-07-13T06:31:48;21.08;;;4.45;;
20653;SDS011;21083;50.898;4.902;2023-07-13T06:34:14;20.48;;;3.58;;
20653;SDS011;21083;50.898;4.902;2023-07-13T06:36:41;20.70;;;3.78;;
20653;SDS011;21083;50.898;4.902;2023-07-13T06:39:08;14.10;;;3.30;;
20653;SDS011;21083;50.898;4.902;2023-07-13T06:41:35;20.75;;;4.30;;
20653;SDS011;21083;50.898;4.902;2023-07-13T06:44:04;19.40;;;4.50;;
20653;SDS011;21083;50.898;4.902;2023-07-13T06:46:31;14.57;;;4.00;;
20653;SDS011;21083;50.898;4.902;2023-07-13T06:48:59;16.27;;;3.85;;
20653;SDS011;21083;50.898;4.902;2023-07-13T06:51:26;18.42;;;4.78;;
20653;SDS011;21083;50.898;4.902;2023-07-13T06:53:53;19.88;;;3.70;;
20653;SDS011;21083;50.898;4.902;2023-07-13T06:56:21;14.13;;;2.90;;
20653;SDS011;21083;50.898;4.902;2023-07-13T06:58:48;15.35;;;3.22;;
20653;SDS011;21083;50.898;4.902;2023-07-13T07:01:15;15.73;;;3.72;;
20653;SDS011;21083;50.898;4.902;2023-07-13T07:03:42;20.48;;;4.47;;
20653;SDS011;21083;50.898;4.902;2023-07-13T07:06:13;14.98;;;3.40;;
20653;SDS011;21083;50.898;4.902;2023-07-13T07:08:41;17.70;;;3.60;;
20653;SDS011;21083;50.898;4.902;2023-07-13T07:11:08;14.90;;;3.38;;
20653;SDS011;21083;50.898;4.902;2023-07-13T07:13:37;16.40;;;3.60;;
20653;SDS011;21083;50.898;4.902;2023-07-13T07:16:04;24.20;;;3.83;;
20653;SDS011;21083;50.898;4.902;2023-07-13T07:18:31;15.18;;;3.72;;
20653;SDS011;21083;50.898;4.902;2023-07-13T07:20:58;17.42;;;3.75;;
20653;SDS011;21083;50.898;4.902;2023-07-13T07:23:26;16.52;;;3.45;;
20653;SDS011;21083;50.898;4.902;2023-07-13T07:25:53;27.55;;;3.78;;
20653;SDS011;21083;50.898;4.902;2023-07-13T07:28:20;23.63;;;5.28;;
20653;SDS011;21083;50.898;4.902;2023-07-13T07:30:47;15.32;;;4.05;;
20653;SDS011;21083;50.898;4.902;2023-07-13T07:33:15;17.30;;;3.75;;
20653;SDS011;21083;50.898;4.902;2023-07-13T07:35:42;15.95;;;3.35;;
20653;SDS011;21083;50.898;4.902;2023-07-13T07:38:09;16.52;;;3.80;;
20653;SDS011;21083;50.898;4.902;2023-07-13T07:40:38;20.70;;;4.00;;
20653;SDS011;21083;50.898;4.902;2023-07-13T07:43:05;16.27;;;3.83;;
20653;SDS011;21083;50.898;4.902;2023-07-13T07:45:32;14.95;;;3.90;;
20653;SDS011;21083;50.898;4.902;2023-07-13T07:47:59;18.55;;;3.33;;
20653;SDS011;21083;50.898;4.902;2023-07-13T07:50:26;18.35;;;3.50;;
20653;SDS011;21083;50.898;4.902;2023-07-13T07:52:54;15.18;;;3.47;;
20653;SDS011;21083;50.898;4.902;2023-07-13T07:55:22;16.05;;;3.58;;
20653;SDS011;21083;50.898;4.902;2023-07-13T07:57:51;16.27;;;3.30;;
20653;SDS011;21083;50.898;4.902;2023-07-13T08:00:19;18.33;;;3.08;;
20653;SDS011;21083;50.898;4.902;2023-07-13T08:02:46;15.45;;;2.95;;
20653;SDS011;21083;50.898;4.902;2023-07-13T08:05:13;12.40;;;2.83;;
20653;SDS011;21083;50.898;4.902;2023-07-13T08:07:40;12.68;;;3.05;;
20653;SDS011;21083;50.898;4.902;2023-07-13T08:10:07;16.02;;;3.13;;
20653;SDS011;21083;50.898;4.902;2023-07-13T08:12:35;18.30;;;4.07;;
20653;SDS011;21083;50.898;4.902;2023-07-13T08:15:04;17.60;;;3.67;;
20653;SDS011;21083;50.898;4.902;2023-07-13T08:17:32;18.02;;;3.78;;
20653;SDS011;21083;50.898;4.902;2023-07-13T08:19:59;15.95;;;2.92;;
20653;SDS011;21083;50.898;4.902;2023-07-13T08:22:26;16.17;;;3.45;;
20653;SDS011;21083;50.898;4.902;2023-07-13T08:24:53;14.35;;;3.55;;
20653;SDS011;21083;50.898;4.902;2023-07-13T08:27:21;13.00;;;3.28;;
20653;SDS011;21083;50.898;4.902;2023-07-13T08:29:48;18.15;;;3.90;;
20653;SDS011;21083;50.898;4.902;2023-07-13T08:32:17;13.02;;;3.22;;
20653;SDS011;21083;50.898;4.902;2023-07-13T08:34:44;17.73;;;3.40;;
20653;SDS011;21083;50.898;4.902;2023-07-13T08:37:11;15.75;;;3.10;;
20653;SDS011;21083;50.898;4.902;2023-07-13T08:39:38;14.48;;;2.90;;
20653;SDS011;21083;50.898;4.902;2023-07-13T08:42:05;17.42;;;3.50;;
20653;SDS011;21083;50.898;4.902;2023-07-13T08:44:40;15.18;;;3.58;;
20653;SDS011;21083;50.898;4.902;2023-07-13T08:47:14;19.05;;;3.63;;
20653;SDS011;21083;50.898;4.902;2023-07-13T08:49:45;13.02;;;3.30;;
20653;SDS011;21083;50.898;4.902;2023-07-13T08:52:13;11.52;;;2.78;;
20653;SDS011;21083;50.898;4.902;2023-07-13T08:54:51;19.20;;;2.88;;
20653;SDS011;21083;50.898;4.902;2023-07-13T08:57:23;13.48;;;2.70;;
20653;SDS011;21083;50.898;4.902;2023-07-13T08:59:57;14.20;;;3.00;;
20653;SDS011;21083;50.898;4.902;2023-07-13T09:02:26;14.43;;;3.03;;
20653;SDS011;21083;50.898;4.902;2023-07-13T09:05:02;13.43;;;2.55;;
20653;SDS011;21083;50.898;4.902;2023-07-13T09:07:39;16.05;;;2.72;;
20653;SDS011;21083;50.898;4.902;2023-07-13T09:10:16;8.93;;;2.65;;
20653;SDS011;21083;50.898;4.902;2023-07-13T09:12:51;12.68;;;2.72;;
20653;SDS011;21083;50.898;4.902;2023-07-13T09:15:28;15.38;;;2.90;;
20653;SDS011;21083;50.898;4.902;2023-07-13T09:18:00;12.82;;;2.63;;
20653;SDS011;21083;50.898;4.902;2023-07-13T09:20:32;10.60;;;2.75;;
20653;SDS011;21083;50.898;4.902;2023-07-13T09:23:04;10.07;;;2.50;;
20653;SDS011;21083;50.898;4.902;2023-07-13T09:25:34;12.57;;;2.95;;
20653;SDS011;21083;50.898;4.902;2023-07-13T09:28:02;7.15;;;2.00;;
20653;SDS011;21083;50.898;4.902;2023-07-13T09:30:38;8.95;;;2.38;;
20653;SDS011;21083;50.898;4.902;2023-07-13T09:33:19;13.68;;;2.17;;
20653;SDS011;21083;50.898;4.902;2023-07-13T09:35:46;10.90;;;2.20;;
20653;SDS011;21083;50.898;4.902;2023-07-13T09:38:14;10.63;;;2.58;;
20653;SDS011;21083;50.898;4.902;2023-07-13T09:40:44;12.48;;;2.10;;
20653;SDS011;21083;50.898;4.902;2023-07-13T09:43:19;10.65;;;2.10;;
20653;SDS011;21083;50.898;4.902;2023-07-13T09:45:47;11.50;;;2.10;;
20653;SDS011;21083;50.898;4.902;2023-07-13T09:48:14;13.48;;;2.78;;
20653;SDS011;21083;50.898;4.902;2023-07-13T09:50:44;10.60;;;2.10;;
20653;SDS011;21083;50.898;4.902;2023-07-13T09:53:12;10.10;;;2.10;;
20653;SDS011;21083;50.898;4.902;2023-07-13T09:55:40;13.73;;;2.70;;
20653;SDS011;21083;50.898;4.902;2023-07-13T09:58:09;9.68;;;2.20;;
20653;SDS011;21083;50.898;4.902;2023-07-13T10:00:38;9.13;;;2.13;;
20653;SDS011;21083;50.898;4.902;2023-07-13T10:03:13;15.38;;;2.22;;
20653;SDS011;21083;50.898;4.902;2023-07-13T10:05:47;11.45;;;2.63;;
20653;SDS011;21083;50.898;4.902;2023-07-13T10:08:20;15.45;;;2.50;;
20653;SDS011;21083;50.898;4.902;2023-07-13T10:10:53;10.27;;;2.03;;
20653;SDS011;21083;50.898;4.902;2023-07-13T10:13:31;10.23;;;1.85;;
20653;SDS011;21083;50.898;4.902;2023-07-13T10:16:02;7.28;;;1.67;;
20653;SDS011;21083;50.898;4.902;2023-07-13T10:18:32;10.32;;;2.10;;
20653;SDS011;21083;50.898;4.902;2023-07-13T10:21:10;8.57;;;2.38;;
20653;SDS011;21083;50.898;4.902;2023-07-13T10:23:40;17.35;;;2.00;;
20653;SDS011;21083;50.898;4.902;2023-07-13T10:26:11;9.80;;;2.05;;
20653;SDS011;21083;50.898;4.902;2023-07-13T10:28:42;7.85;;;1.63;;
20653;SDS011;21083;50.898;4.902;2023-07-13T10:31:14;6.80;;;2.13;;
20653;SDS011;21083;50.898;4.902;2023-07-13T10:33:42;7.43;;;1.88;;
20653;SDS011;21083;50.898;4.902;2023-07-13T10:36:13;13.35;;;1.80;;
20653;SDS011;21083;50.898;4.902;2023-07-13T10:38:45;5.55;;;1.80;;
20653;SDS011;21083;50.898;4.902;2023-07-13T10:41:17;11.00;;;2.08;;
20653;SDS011;21083;50.898;4.902;2023-07-13T10:43:47;6.68;;;1.73;;
20653;SDS011;21083;50.898;4.902;2023-07-13T10:46:17;11.98;;;2.30;;
20653;SDS011;21083;50.898;4.902;2023-07-13T10:48:48;8.60;;;1.98;;
20653;SDS011;21083;50.898;4.902;2023-07-13T10:51:21;7.15;;;1.42;;
20653;SDS011;21083;50.898;4.902;2023-07-13T10:56:38;10.52;;;2.00;;
20653;SDS011;21083;50.898;4.902;2023-07-13T10:59:09;11.45;;;2.03;;
20653;SDS011;21083;50.898;4.902;2023-07-13T11:01:40;9.02;;;1.60;;
20653;SDS011;21083;50.898;4.902;2023-07-13T11:04:15;9.07;;;2.20;;
20653;SDS011;21083;50.898;4.902;2023-07-13T11:06:43;11.65;;;1.90;;
20653;SDS011;21083;50.898;4.902;2023-07-13T11:09:19;5.30;;;1.42;;
20653;SDS011;21083;50.898;4.902;2023-07-13T11:11:58;11.18;;;1.92;;
20653;SDS011;21083;50.898;4.902;2023-07-13T11:14:27;11.73;;;2.05;;
20653;SDS011;21083;50.898;4.902;2023-07-13T11:16:56;11.45;;;2.03;;
20653;SDS011;21083;50.898;4.902;2023-07-13T11:22:23;7.43;;;1.90;;
20653;SDS011;21083;50.898;4.902;2023-07-13T11:25:01;6.82;;;1.85;;
20653;SDS011;21083;50.898;4.902;2023-07-13T11:27:49;7.65;;;1.75;;
20653;SDS011;21083;50.898;4.902;2023-07-13T11:30:21;8.57;;;2.08;;
20653;SDS011;21083;50.898;4.902;2023-07-13T11:32:50;12.52;;;1.65;;
20653;SDS011;21083;50.898;4.902;2023-07-13T11:35:31;10.25;;;1.40;;
20653;SDS011;21083;50.898;4.902;2023-07-13T11:38:01;8.40;;;1.70;;
20653;SDS011;21083;50.898;4.902;2023-07-13T11:40:28;6.35;;;1.35;;
20653;SDS011;21083;50.898;4.902;2023-07-13T11:42:59;6.95;;;1.60;;
20653;SDS011;21083;50.898;4.902;2023-07-13T11:45:27;10.68;;;2.10;;
20653;SDS011;21083;50.898;4.902;2023-07-13T11:47:54;10.45;;;2.10;;
20653;SDS011;21083;50.898;4.902;2023-07-13T11:50:25;11.00;;;1.90;;
20653;SDS011;21083;50.898;4.902;2023-07-13T11:52:52;6.63;;;1.70;;
20653;SDS011;21083;50.898;4.902;2023-07-13T11:55:23;9.05;;;1.65;;
20653;SDS011;21083;50.898;4.902;2023-07-13T11:57:51;7.72;;;1.85;;
20653;SDS011;21083;50.898;4.902;2023-07-13T12:00:25;10.07;;;1.70;;
20653;SDS011;21083;50.898;4.902;2023-07-13T12:02:55;7.22;;;1.80;;
20653;SDS011;21083;50.898;4.902;2023-07-13T12:05:25;9.07;;;1.58;;
20653;SDS011;21083;50.898;4.902;2023-07-13T12:07:53;10.00;;;1.92;;
20653;SDS011;21083;50.898;4.902;2023-07-13T12:10:22;10.48;;;1.40;;
20653;SDS011;21083;50.898;4.902;2023-07-13T12:12:54;7.40;;;1.42;;
20653;SDS011;21083;50.898;4.902;2023-07-13T12:15:23;10.73;;;2.05;;
20653;SDS011;21083;50.898;4.902;2023-07-13T12:17:54;7.60;;;1.55;;
20653;SDS011;21083;50.898;4.902;2023-07-13T12:20:25;10.60;;;1.50;;
20653;SDS011;21083;50.898;4.902;2023-07-13T12:22:53;7.97;;;1.40;;
20653;SDS011;21083;50.898;4.902;2023-07-13T12:25:20;8.52;;;1.73;;
20653;SDS011;21083;50.898;4.902;2023-07-13T12:27:50;9.15;;;1.90;;
20653;SDS011;21083;50.898;4.902;2023-07-13T12:30:25;4.50;;;1.35;;
20653;SDS011;21083;50.898;4.902;2023-07-13T12:32:56;8.10;;;1.67;;
20653;SDS011;21083;50.898;4.902;2023-07-13T12:35:26;8.68;;;1.73;;
20653;SDS011;21083;50.898;4.902;2023-07-13T12:37:56;7.82;;;1.42;;
20653;SDS011;21083;50.898;4.902;2023-07-13T12:40:26;8.20;;;1.60;;
20653;SDS011;21083;50.898;4.902;2023-07-13T12:42:56;8.48;;;1.58;;
20653;SDS011;21083;50.898;4.902;2023-07-13T12:45:23;6.28;;;1.48;;
20653;SDS011;21083;50.898;4.902;2023-07-13T12:47:53;8.75;;;2.08;;
20653;SDS011;21083;50.898;4.902;2023-07-13T12:50:22;9.00;;;1.83;;
20653;SDS011;21083;50.898;4.902;2023-07-13T12:52:56;18.50;;;1.92;;
20653;SDS011;21083;50.898;4.902;2023-07-13T12:55:28;8.07;;;1.17;;
20653;SDS011;21083;50.898;4.902;2023-07-13T12:57:59;5.30;;;1.33;;
20653;SDS011;21083;50.898;4.902;2023-07-13T13:00:30;5.72;;;1.42;;
20653;SDS011;21083;50.898;4.902;2023-07-13T13:03:01;7.00;;;1.33;;
20653;SDS011;21083;50.898;4.902;2023-07-13T13:05:30;5.68;;;2.03;;
20653;SDS011;21083;50.898;4.902;2023-07-13T13:07:59;5.60;;;1.67;;
20653;SDS011;21083;50.898;4.902;2023-07-13T13:10:26;10.00;;;2.00;;
20653;SDS011;21083;50.898;4.902;2023-07-13T13:12:54;7.95;;;2.00;;
20653;SDS011;21083;50.898;4.902;2023-07-13T13:15:22;9.00;;;2.05;;
20653;SDS011;21083;50.898;4.902;2023-07-13T13:17:49;10.15;;;2.08;;
20653;SDS011;21083;50.898;4.902;2023-07-13T13:20:16;8.63;;;2.22;;
20653;SDS011;21083;50.898;4.902;2023-07-13T13:22:44;6.82;;;1.67;;
20653;SDS011;21083;50.898;4.902;2023-07-13T13:25:12;9.20;;;1.90;;
20653;SDS011;21083;50.898;4.902;2023-07-13T13:27:40;8.50;;;2.05;;
20653;SDS011;21083;50.898;4.902;2023-07-13T13:30:10;6.72;;;1.70;;
20653;SDS011;21083;50.898;4.902;2023-07-13T13:32:39;7.82;;;1.70;;
20653;SDS011;21083;50.898;4.902;2023-07-13T13:35:09;6.95;;;1.55;;
20653;SDS011;21083;50.898;4.902;2023-07-13T13:37:42;5.00;;;1.35;;
20653;SDS011;21083;50.898;4.902;2023-07-13T13:40:20;4.15;;;1.40;;
20653;SDS011;21083;50.898;4.902;2023-07-13T13:42:48;4.88;;;1.42;;
20653;SDS011;21083;50.898;4.902;2023-07-13T13:45:16;5.10;;;1.38;;
20653;SDS011;21083;50.898;4.902;2023-07-13T13:47:46;6.32;;;1.50;;
20653;SDS011;21083;50.898;4.902;2023-07-13T13:50:14;6.53;;;1.73;;
20653;SDS011;21083;50.898;4.902;2023-07-13T13:52:43;6.38;;;1.50;;
20653;SDS011;21083;50.898;4.902;2023-07-13T13:55:13;7.03;;;1.27;;
20653;SDS011;21083;50.898;4.902;2023-07-13T13:57:41;6.45;;;1.63;;
20653;SDS011;21083;50.898;4.902;2023-07-13T14:00:09;6.32;;;1.33;;
20653;SDS011;21083;50.898;4.902;2023-07-13T14:02:39;4.65;;;1.40;;
20653;SDS011;21083;50.898;4.902;2023-07-13T14:05:11;4.03;;;1.30;;
20653;SDS011;21083;50.898;4.902;2023-07-13T14:07:39;5.10;;;1.45;;
20653;SDS011;21083;50.898;4.902;2023-07-13T14:10:09;14.90;;;1.95;;
20653;SDS011;21083;50.898;4.902;2023-07-13T14:12:40;7.25;;;1.30;;
20653;SDS011;21083;50.898;4.902;2023-07-13T14:15:12;6.13;;;1.45;;
20653;SDS011;21083;50.898;4.902;2023-07-13T14:17:44;7.15;;;1.63;;
20653;SDS011;21083;50.898;4.902;2023-07-13T14:20:12;6.47;;;1.52;;
20653;SDS011;21083;50.898;4.902;2023-07-13T14:22:40;3.92;;;1.23;;
20653;SDS011;21083;50.898;4.902;2023-07-13T14:25:10;5.32;;;1.30;;
20653;SDS011;21083;50.898;4.902;2023-07-13T14:27:37;5.10;;;1.55;;
20653;SDS011;21083;50.898;4.902;2023-07-13T14:30:07;9.50;;;1.90;;
20653;SDS011;21083;50.898;4.902;2023-07-13T14:32:38;7.57;;;1.60;;
20653;SDS011;21083;50.898;4.902;2023-07-13T14:35:06;7.88;;;1.80;;
20653;SDS011;21083;50.898;4.902;2023-07-13T14:37:36;7.25;;;2.05;;
20653;SDS011;21083;50.898;4.902;2023-07-13T14:40:08;6.45;;;1.70;;
20653;SDS011;21083;50.898;4.902;2023-07-13T14:42:39;10.38;;;2.20;;
20653;SDS011;21083;50.898;4.902;2023-07-13T14:45:11;7.57;;;1.80;;
20653;SDS011;21083;50.898;4.902;2023-07-13T14:47:39;5.38;;;1.55;;
20653;SDS011;21083;50.898;4.902;2023-07-13T14:50:07;9.60;;;1.55;;
20653;SDS011;21083;50.898;4.902;2023-07-13T14:52:42;8.05;;;1.60;;